Time;durP1;ratioP1;P1;durP2;ratioP2;P2;SDS_P1;SDS_P2;PMS_P1;PMS_P2;Temp;Humidity;BMP_temperature;BMP_pressure;BME280_temperature;BME280_humidity;BME280_pressure;Samples;Min_cycle;Max_cycle;Signal;HPM_P1;HPM_P2
2023/05/17 00:01:49;;;;;;;6.63;6.43;;;7.20;99.90;;;;;;5036130;28;20517;-67
2023/05/17 00:04:17;;;;;;;7.13;6.93;;;7.10;99.90;;;;;;5038291;28;20460;-68
2023/05/17 00:06:45;;;;;;;6.50;6.30;;;7.20;99.90;;;;;;5039641;28;20460;-67
2023/05/17 00:09:12;;;;;;;6.53;6.23;;;7.20;99.90;;;;;;5043066;28;20463;-68
2023/05/17 00:11:38;;;;;;;6.27;6.07;;;7.20;99.90;;;;;;5045557;28;20525;-68
2023/05/17 00:14:06;;;;;;;15.40;6.40;;;7.20;99.90;;;;;;5034848;28;20510;-69
2023/05/17 00:16:33;;;;;;;6.00;5.80;;;7.20;99.90;;;;;;5040781;28;20864;-69
2023/05/17 00:19:00;;;;;;;5.90;5.70;;;7.10;99.90;;;;;;5034036;28;20586;-68
2023/05/17 00:21:28;;;;;;;6.57;6.37;;;7.10;99.90;;;;;;5044856;28;20548;-69
2023/05/17 00:23:55;;;;;;;6.53;6.33;;;7.00;99.90;;;;;;5044811;28;20466;-69
2023/05/17 00:26:22;;;;;;;6.53;6.23;;;6.90;99.90;;;;;;5048923;28;20515;-68
2023/05/17 00:28:50;;;;;;;6.33;6.13;;;6.90;99.90;;;;;;5042653;28;20463;-68
2023/05/17 00:31:18;;;;;;;5.93;5.73;;;6.80;99.90;;;;;;5050987;28;20628;-68
2023/05/17 00:33:45;;;;;;;6.17;5.97;;;6.80;99.90;;;;;;5042556;28;20459;-67
2023/05/17 00:36:12;;;;;;;6.57;6.37;;;6.80;99.90;;;;;;5043698;28;20459;-67
2023/05/17 00:38:41;;;;;;;7.23;7.03;;;6.80;99.90;;;;;;5046282;28;20785;-68
2023/05/17 00:41:09;;;;;;;6.40;6.20;;;6.80;99.90;;;;;;5041509;28;20526;-67
2023/05/17 00:43:36;;;;;;;6.20;6.00;;;6.80;99.90;;;;;;5039037;28;20543;-68
2023/05/17 00:46:03;;;;;;;6.90;6.70;;;6.80;99.90;;;;;;5045760;28;20542;-69
2023/05/17 00:48:31;;;;;;;7.10;6.80;;;6.70;99.90;;;;;;5044506;28;20468;-69
2023/05/17 00:50:59;;;;;;;7.13;6.93;;;6.70;99.90;;;;;;5040376;28;20683;-68
2023/05/17 00:53:27;;;;;;;6.83;6.63;;;6.70;99.90;;;;;;5042713;28;20476;-68
2023/05/17 00:55:55;;;;;;;7.47;7.23;;;6.60;99.90;;;;;;5046208;28;20459;-68
2023/05/17 00:58:23;;;;;;;8.17;7.87;;;6.50;99.90;;;;;;5039197;28;20467;-69
2023/05/17 01:00:50;;;;;;;7.30;7.10;;;6.50;99.90;;;;;;5038173;28;20969;-68
2023/05/17 01:03:17;;;;;;;7.43;7.23;;;6.50;99.90;;;;;;5038575;28;20478;-68
2023/05/17 01:05:45;;;;;;;6.73;6.53;;;6.50;99.90;;;;;;5043460;28;20542;-68
2023/05/17 01:08:12;;;;;;;7.30;7.10;;;6.50;99.90;;;;;;5044727;28;20470;-68
2023/05/17 01:10:45;;;;;;;7.30;7.10;;;6.50;99.90;;;;;;5038234;28;20475;-68
2023/05/17 01:13:19;;;;;;;7.50;7.30;;;6.40;99.90;;;;;;5043662;28;20460;-68
2023/05/17 01:15:51;;;;;;;7.97;7.63;;;6.30;99.90;;;;;;5047507;28;20507;-68
2023/05/17 01:18:25;;;;;;;7.63;7.33;;;6.30;99.90;;;;;;5049310;28;20475;-69
2023/05/17 01:20:55;;;;;;;8.70;8.37;;;6.30;99.90;;;;;;5034400;28;21001;-68
2023/05/17 01:23:35;;;;;;;7.13;6.93;;;6.40;99.90;;;;;;5043422;28;20884;-69
2023/05/17 01:26:10;;;;;;;7.43;7.03;;;6.40;99.90;;;;;;5042969;28;20576;-68
2023/05/17 01:28:41;;;;;;;7.80;7.47;;;6.40;99.90;;;;;;5045707;28;20476;-68
2023/05/17 01:31:09;;;;;;;7.50;7.20;;;6.40;99.90;;;;;;5040248;28;20537;-68
2023/05/17 01:33:37;;;;;;;7.40;6.97;;;6.50;99.90;;;;;;5037831;28;20465;-68
2023/05/17 01:36:05;;;;;;;6.67;6.47;;;6.50;99.90;;;;;;5038918;28;20989;-69
2023/05/17 01:38:33;;;;;;;6.43;6.23;;;6.50;99.90;;;;;;5043573;28;20968;-68
2023/05/17 01:41:07;;;;;;;6.60;6.40;;;6.50;99.90;;;;;;5043520;28;20473;-68
2023/05/17 01:43:42;;;;;;;6.30;6.10;;;6.60;99.90;;;;;;5043924;28;20462;-68
2023/05/17 01:46:15;;;;;;;6.80;6.60;;;6.50;99.90;;;;;;5036220;28;20551;-69
2023/05/17 01:48:48;;;;;;;6.70;6.50;;;6.40;99.90;;;;;;5049054;28;20519;-68
2023/05/17 01:51:19;;;;;;;6.90;6.70;;;6.40;99.90;;;;;;5038762;28;20488;-68
2023/05/17 01:53:48;;;;;;;7.30;7.10;;;6.30;99.90;;;;;;5042838;28;20938;-69
2023/05/17 01:56:21;;;;;;;7.60;7.40;;;6.20;99.90;;;;;;5043379;28;20464;-68
2023/05/17 01:58:52;;;;;;;7.77;7.47;;;6.10;99.90;;;;;;5036597;28;20805;-68
2023/05/17 02:01:21;;;;;;;7.90;7.60;;;6.00;99.90;;;;;;5048462;28;20474;-68
2023/05/17 02:03:49;;;;;;;8.27;7.97;;;5.90;99.90;;;;;;5037622;28;20518;-67
2023/05/17 02:06:16;;;;;;;10.60;10.10;;;5.90;99.90;;;;;;5037626;28;20460;-68
2023/05/17 02:08:43;;;;;;;8.00;7.70;;;5.90;99.90;;;;;;5041451;28;20487;-69
2023/05/17 02:11:10;;;;;;;8.30;8.00;;;5.90;99.90;;;;;;5043420;28;20484;-68
2023/05/17 02:13:37;;;;;;;7.67;7.40;;;5.80;99.90;;;;;;5038393;28;20467;-68
2023/05/17 02:16:06;;;;;;;8.43;8.13;;;5.80;99.90;;;;;;5037680;28;21033;-68
2023/05/17 02:18:34;;;;;;;8.27;7.97;;;5.70;99.90;;;;;;5037322;28;20472;-68
2023/05/17 02:21:01;;;;;;;8.03;7.73;;;5.80;99.90;;;;;;5035733;28;20488;-68
2023/05/17 02:23:28;;;;;;;8.70;8.40;;;5.80;99.90;;;;;;5035422;28;20562;-69
2023/05/17 02:25:55;;;;;;;8.30;8.00;;;5.80;99.90;;;;;;5046734;28;20543;-68
2023/05/17 02:28:22;;;;;;;8.83;8.53;;;5.80;99.90;;;;;;5039317;28;21045;-68
2023/05/17 02:30:51;;;;;;;9.10;8.80;;;5.70;99.90;;;;;;5043323;28;20471;-69
2023/05/17 02:33:20;;;;;;;8.50;8.20;;;5.60;99.90;;;;;;5043079;28;21019;-68
2023/05/17 02:35:49;;;;;;;8.30;8.00;;;5.60;99.90;;;;;;5033825;28;20471;-68
2023/05/17 02:38:16;;;;;;;26.87;9.87;;;5.60;99.90;;;;;;5041378;28;20492;-68
2023/05/17 02:40:43;;;;;;;7.87;7.57;;;5.60;99.90;;;;;;5039256;28;20460;-67
2023/05/17 02:43:10;;;;;;;8.37;8.07;;;5.50;99.90;;;;;;5035753;28;20531;-68
2023/05/17 02:45:37;;;;;;;8.30;8.00;;;5.40;99.90;;;;;;5044124;28;20461;-69
2023/05/17 02:48:05;;;;;;;8.63;8.33;;;5.40;99.90;;;;;;5038729;28;20474;-69
2023/05/17 02:50:33;;;;;;;8.50;8.20;;;5.40;99.90;;;;;;5030920;28;20467;-68
2023/05/17 02:53:00;;;;;;;7.97;7.67;;;5.50;99.90;;;;;;5038778;28;20848;-68
2023/05/17 02:55:27;;;;;;;9.20;8.90;;;5.50;99.90;;;;;;5044464;28;20564;-68
2023/05/17 02:57:55;;;;;;;9.50;9.20;;;5.50;99.90;;;;;;5035632;28;20465;-68
2023/05/17 03:00:23;;;;;;;8.53;8.23;;;5.50;99.90;;;;;;5040776;28;20475;-68
2023/05/17 03:02:50;;;;;;;8.20;7.90;;;5.50;99.90;;;;;;5038740;28;20510;-69
2023/05/17 03:05:17;;;;;;;8.17;7.87;;;5.40;99.90;;;;;;5038809;28;20491;-69
2023/05/17 03:07:46;;;;;;;8.63;8.33;;;5.40;99.90;;;;;;5038107;28;20538;-68
2023/05/17 03:10:12;;;;;;;8.47;8.17;;;5.30;99.90;;;;;;5036958;28;20473;-68
2023/05/17 03:12:40;;;;;;;8.93;8.63;;;5.20;99.90;;;;;;5041431;28;20493;-68
2023/05/17 03:15:08;;;;;;;8.77;8.47;;;5.10;99.90;;;;;;5041674;28;20962;-68
2023/05/17 03:17:35;;;;;;;8.30;8.00;;;5.10;99.90;;;;;;5039384;28;20462;-68
2023/05/17 03:20:03;;;;;;;8.70;8.40;;;5.20;99.90;;;;;;5041915;28;20487;-68
2023/05/17 03:22:30;;;;;;;8.67;8.37;;;5.30;99.90;;;;;;5036570;28;20519;-69
2023/05/17 03:24:59;;;;;;;8.33;8.03;;;5.30;99.90;;;;;;5041854;28;20982;-68
2023/05/17 03:27:27;;;;;;;7.80;7.50;;;5.20;99.90;;;;;;5045142;28;20523;-67
2023/05/17 03:29:54;;;;;;;8.23;7.93;;;5.20;99.90;;;;;;5041703;28;20466;-68
2023/05/17 03:32:21;;;;;;;8.30;8.00;;;5.30;99.90;;;;;;5039273;28;20492;-68
2023/05/17 03:34:49;;;;;;;7.97;7.67;;;5.20;99.90;;;;;;5031445;28;20803;-69
2023/05/17 03:37:16;;;;;;;8.50;8.20;;;5.20;99.90;;;;;;5045027;28;20466;-68
2023/05/17 03:39:43;;;;;;;8.30;8.00;;;5.10;99.90;;;;;;5040933;28;20466;-69
2023/05/17 03:42:12;;;;;;;8.20;7.90;;;5.10;99.90;;;;;;5040708;28;20489;-68
2023/05/17 03:44:40;;;;;;;8.20;7.90;;;5.20;99.90;;;;;;5044882;28;20561;-67
2023/05/17 03:47:07;;;;;;;7.87;7.57;;;5.20;99.90;;;;;;5039293;28;20468;-68
2023/05/17 03:49:35;;;;;;;7.77;7.47;;;5.20;99.90;;;;;;5037474;28;20469;-68
2023/05/17 03:52:02;;;;;;;8.07;7.77;;;5.20;99.90;;;;;;5029519;28;20486;-69
2023/05/17 03:54:31;;;;;;;7.47;7.27;;;5.30;99.90;;;;;;5043322;28;20475;-68
2023/05/17 03:56:58;;;;;;;7.80;7.50;;;5.30;99.90;;;;;;5048165;28;20470;-68
2023/05/17 03:59:27;;;;;;;7.80;7.50;;;5.30;99.90;;;;;;5044299;28;20461;-69
2023/05/17 04:01:55;;;;;;;8.20;7.90;;;5.40;99.90;;;;;;5044930;28;20465;-68
2023/05/17 04:04:22;;;;;;;7.90;7.60;;;5.50;99.90;;;;;;5041366;28;20896;-69
2023/05/17 04:06:49;;;;;;;8.10;7.80;;;5.60;99.90;;;;;;5040535;28;20468;-68
2023/05/17 04:09:16;;;;;;;8.00;7.70;;;5.70;99.90;;;;;;5045226;28;20512;-68
2023/05/17 04:11:43;;;;;;;8.07;7.77;;;5.80;99.90;;;;;;5044332;28;20489;-68
2023/05/17 04:14:10;;;;;;;8.67;8.03;;;6.00;99.90;;;;;;5040204;28;20460;-68
2023/05/17 04:16:38;;;;;;;7.90;7.60;;;6.10;99.90;;;;;;5043987;28;20468;-68
2023/05/17 04:19:05;;;;;;;7.23;7.03;;;6.20;99.90;;;;;;5043152;28;20808;-69
2023/05/17 04:21:32;;;;;;;7.47;7.17;;;6.40;99.90;;;;;;5041074;28;20491;-68
2023/05/17 04:24:01;;;;;;;8.00;7.70;;;6.50;99.90;;;;;;5031695;28;20525;-68
2023/05/17 04:26:29;;;;;;;7.30;6.87;;;6.70;99.90;;;;;;5041972;28;20840;-68
2023/05/17 04:28:56;;;;;;;7.03;6.83;;;6.70;99.90;;;;;;5043703;28;20977;-69
2023/05/17 04:31:24;;;;;;;7.80;7.50;;;6.80;99.90;;;;;;5037631;28;20518;-68
2023/05/17 04:33:52;;;;;;;7.47;7.27;;;6.90;99.90;;;;;;5031427;28;20464;-68
2023/05/17 04:36:21;;;;;;;7.93;7.63;;;7.10;99.90;;;;;;5037652;28;20993;-67
2023/05/17 04:38:48;;;;;;;7.77;7.47;;;7.10;99.90;;;;;;5038189;28;20559;-67
2023/05/17 04:41:15;;;;;;;7.40;7.20;;;7.30;99.90;;;;;;5040277;28;21024;-68
2023/05/17 04:43:43;;;;;;;7.80;7.50;;;7.30;99.90;;;;;;5041714;28;20581;-68
2023/05/17 04:46:10;;;;;;;6.70;6.50;;;7.50;99.90;;;;;;5040249;28;20464;-68
2023/05/17 04:48:37;;;;;;;7.60;7.30;;;7.60;99.90;;;;;;5042102;28;20459;-68
2023/05/17 04:51:06;;;;;;;15.23;7.27;;;7.70;99.90;;;;;;5046619;28;20467;-68
2023/05/17 04:53:33;;;;;;;7.67;7.27;;;7.90;99.90;;;;;;5035554;28;20500;-67
2023/05/17 04:56:00;;;;;;;7.17;6.87;;;8.00;99.90;;;;;;5045724;28;20459;-68
2023/05/17 04:58:27;;;;;;;9.47;9.07;;;8.10;99.90;;;;;;5039558;28;20467;-69
2023/05/17 05:00:54;;;;;;;7.83;7.37;;;8.10;99.90;;;;;;5035372;28;20993;-69
2023/05/17 05:03:22;;;;;;;8.30;7.90;;;8.10;99.90;;;;;;5041234;28;20952;-68
2023/05/17 05:05:49;;;;;;;7.63;7.33;;;8.10;99.90;;;;;;5038518;28;20461;-69
2023/05/17 05:08:18;;;;;;;8.33;7.57;;;8.20;99.90;;;;;;5041921;28;20556;-68
2023/05/17 05:10:45;;;;;;;10.17;9.10;;;8.30;99.90;;;;;;5039679;28;20810;-69
2023/05/17 05:13:12;;;;;;;7.80;7.23;;;8.40;99.90;;;;;;5042358;28;20606;-68
2023/05/17 05:15:38;;;;;;;8.10;7.80;;;8.50;99.90;;;;;;5041528;28;20460;-68
2023/05/17 05:18:06;;;;;;;7.97;7.57;;;8.40;99.90;;;;;;5043615;28;20515;-68
2023/05/17 05:20:33;;;;;;;8.83;8.27;;;8.50;99.90;;;;;;5042107;28;20495;-68
2023/05/17 05:23:04;;;;;;;7.63;7.03;;;8.60;99.90;;;;;;5040150;28;20523;-68
2023/05/17 05:25:32;;;;;;;5.43;5.23;;;8.60;99.90;;;;;;5040604;28;20464;-68
2023/05/17 05:28:00;;;;;;;5.83;5.50;;;8.60;99.90;;;;;;5043785;28;20522;-68
2023/05/17 05:30:27;;;;;;;8.20;7.77;;;8.80;99.90;;;;;;5040689;28;20777;-68
2023/05/17 05:32:53;;;;;;;15.53;8.03;;;8.90;99.90;;;;;;5037224;28;20500;-67
2023/05/17 05:35:25;;;;;;;6.73;6.43;;;8.90;99.90;;;;;;5042248;28;20475;-68
2023/05/17 05:37:53;;;;;;;6.03;5.83;;;9.00;99.90;;;;;;5044829;28;20553;-69
2023/05/17 05:40:21;;;;;;;6.00;5.60;;;8.90;99.90;;;;;;5043814;28;20507;-68
2023/05/17 05:42:49;;;;;;;6.00;5.77;;;8.90;99.90;;;;;;5042869;28;20915;-69
2023/05/17 05:45:17;;;;;;;7.50;6.97;;;8.90;99.90;;;;;;5035806;28;20459;-68
2023/05/17 05:47:44;;;;;;;6.40;5.90;;;8.90;99.90;;;;;;5037365;28;20464;-68
2023/05/17 05:50:11;;;;;;;6.33;5.83;;;9.00;99.90;;;;;;5043886;28;20513;-68
2023/05/17 05:52:38;;;;;;;4.37;4.07;;;9.10;99.90;;;;;;5039912;28;20499;-68
2023/05/17 05:55:06;;;;;;;4.47;4.17;;;9.20;99.90;;;;;;5035427;28;20830;-68
2023/05/17 05:57:34;;;;;;;3.73;3.53;;;9.30;99.90;;;;;;5039560;28;20786;-68
2023/05/17 06:00:03;;;;;;;4.40;4.10;;;9.40;99.90;;;;;;5043684;28;20455;-69
2023/05/17 06:02:30;;;;;;;5.00;3.40;;;9.50;99.90;;;;;;5042403;28;20961;-68
2023/05/17 06:04:57;;;;;;;6.03;5.53;;;9.50;99.90;;;;;;5040207;28;20473;-69
2023/05/17 06:07:23;;;;;;;11.60;6.10;;;9.50;99.90;;;;;;5041973;28;20477;-68
2023/05/17 06:09:50;;;;;;;8.00;4.77;;;9.70;99.90;;;;;;5045603;28;20467;-68
2023/05/17 06:12:17;;;;;;;2.73;2.63;;;9.80;99.90;;;;;;5044165;28;20488;-69
2023/05/17 06:14:46;;;;;;;5.20;4.73;;;9.90;99.90;;;;;;5039949;28;20483;-68
2023/05/17 06:17:15;;;;;;;4.93;4.30;;;10.10;99.90;;;;;;5040363;28;20467;-68
2023/05/17 06:19:41;;;;;;;4.53;4.23;;;10.10;99.90;;;;;;5044278;28;20662;-69
2023/05/17 06:22:08;;;;;;;5.30;4.80;;;10.20;99.90;;;;;;5035408;28;20493;-68
2023/05/17 06:24:36;;;;;;;4.63;4.43;;;10.40;99.90;;;;;;5036271;28;20468;-69
2023/05/17 06:27:02;;;;;;;3.97;3.77;;;10.50;99.90;;;;;;5039411;28;20467;-69
2023/05/17 06:29:29;;;;;;;19.23;4.60;;;10.70;99.90;;;;;;5037840;28;20472;-69
2023/05/17 06:31:58;;;;;;;3.73;3.57;;;11.00;99.90;;;;;;5040256;28;20464;-69
2023/05/17 06:34:27;;;;;;;5.50;5.20;;;11.20;99.90;;;;;;5046422;28;20487;-68
2023/05/17 06:36:55;;;;;;;6.43;5.83;;;11.30;99.90;;;;;;5032038;28;20464;-69
2023/05/17 06:39:21;;;;;;;6.00;5.70;;;11.30;99.90;;;;;;5032570;28;20463;-69
2023/05/17 06:41:48;;;;;;;13.93;6.50;;;11.40;99.90;;;;;;5035392;28;20465;-68
2023/05/17 06:44:15;;;;;;;8.27;7.77;;;11.30;99.90;;;;;;5035327;28;20482;-69
2023/05/17 06:46:42;;;;;;;8.27;7.57;;;11.40;99.90;;;;;;5031385;28;20461;-69
2023/05/17 06:49:09;;;;;;;9.10;8.80;;;11.60;99.90;;;;;;5039773;28;20541;-69
2023/05/17 06:51:37;;;;;;;11.40;10.80;;;11.80;99.90;;;;;;5037809;28;20461;-69
2023/05/17 06:54:04;;;;;;;31.07;10.30;;;12.00;99.90;;;;;;5032584;28;20493;-70
2023/05/17 06:56:31;;;;;;;11.40;10.80;;;12.10;99.90;;;;;;5037145;28;20459;-67
2023/05/17 06:58:59;;;;;;;21.73;14.60;;;12.20;99.90;;;;;;5042042;28;20470;-67
2023/05/17 07:01:26;;;;;;;12.60;11.83;;;12.20;99.90;;;;;;5033864;28;20456;-68
2023/05/17 07:03:53;;;;;;;13.13;12.53;;;12.30;99.90;;;;;;5034020;28;20461;-66
2023/05/17 07:06:20;;;;;;;15.47;14.47;;;12.30;99.90;;;;;;5038982;28;20480;-67
2023/05/17 07:08:48;;;;;;;15.33;14.40;;;12.00;99.90;;;;;;5035695;28;20466;-67
2023/05/17 07:11:15;;;;;;;14.87;13.90;;;11.80;99.90;;;;;;5035158;28;20469;-69
2023/05/17 07:13:42;;;;;;;15.60;14.50;;;11.90;99.90;;;;;;5038345;28;20528;-67
2023/05/17 07:16:09;;;;;;;16.90;15.80;;;12.10;99.90;;;;;;5031999;28;20782;-67
2023/05/17 07:18:36;;;;;;;15.57;14.07;;;12.10;99.90;;;;;;5040660;28;20452;-66
2023/05/17 07:21:02;;;;;;;20.67;14.70;;;12.10;99.90;;;;;;5032304;28;20816;-66
2023/05/17 07:23:30;;;;;;;16.97;15.67;;;12.20;99.90;;;;;;5029856;28;20511;-67
2023/05/17 07:25:58;;;;;;;18.27;16.77;;;12.30;99.90;;;;;;5037953;28;20517;-68
2023/05/17 07:28:25;;;;;;;17.63;16.23;;;12.20;99.90;;;;;;5033517;28;20467;-67
2023/05/17 07:30:52;;;;;;;16.50;15.40;;;12.00;99.90;;;;;;5038655;28;20462;-67
2023/05/17 07:33:19;;;;;;;15.70;14.90;;;12.00;99.90;;;;;;5044078;28;20475;-67
2023/05/17 07:35:45;;;;;;;16.03;15.13;;;12.00;99.90;;;;;;5042171;28;20466;-66
2023/05/17 07:38:12;;;;;;;15.43;14.53;;;12.10;99.90;;;;;;5039006;28;20467;-68
2023/05/17 07:40:39;;;;;;;17.10;16.10;;;12.10;99.90;;;;;;5034084;28;21215;-67
2023/05/17 07:43:08;;;;;;;15.87;15.00;;;12.30;99.90;;;;;;5031430;28;20567;-68
2023/05/17 07:45:34;;;;;;;15.77;14.90;;;12.40;99.90;;;;;;5040568;28;20627;-67
2023/05/17 07:48:01;;;;;;;15.60;14.90;;;12.20;99.90;;;;;;5029250;28;20464;-67
2023/05/17 07:50:28;;;;;;;16.90;15.83;;;12.20;99.90;;;;;;5039071;28;20517;-67
2023/05/17 07:52:55;;;;;;;17.40;16.10;;;12.20;99.90;;;;;;5034740;28;20894;-67
2023/05/17 07:55:22;;;;;;;16.80;16.00;;;12.20;99.90;;;;;;5045454;28;20507;-67
2023/05/17 07:57:48;;;;;;;17.67;16.20;;;12.40;99.90;;;;;;5046077;28;20475;-67
2023/05/17 08:00:18;;;;;;;17.80;15.30;;;12.30;99.90;;;;;;5041425;28;20480;-67
2023/05/17 08:02:46;;;;;;;16.10;15.30;;;12.60;99.90;;;;;;5042508;28;20546;-67
2023/05/17 08:05:12;;;;;;;16.03;15.23;;;12.70;99.90;;;;;;5039005;28;20466;-67
2023/05/17 08:07:39;;;;;;;16.10;15.20;;;12.70;99.90;;;;;;5045611;28;20463;-67
2023/05/17 08:10:07;;;;;;;15.93;15.23;;;12.80;99.90;;;;;;5027348;28;20518;-67
2023/05/17 08:12:34;;;;;;;15.73;14.93;;;12.90;99.90;;;;;;5035576;28;20553;-67
2023/05/17 08:15:01;;;;;;;16.43;15.43;;;13.10;99.90;;;;;;5034668;28;20464;-68
2023/05/17 08:17:29;;;;;;;18.33;16.80;;;13.00;99.90;;;;;;5029433;28;20500;-67
2023/05/17 08:19:56;;;;;;;16.63;15.00;;;12.40;99.90;;;;;;5034322;28;20493;-67
2023/05/17 08:22:24;;;;;;;17.00;16.20;;;12.70;99.90;;;;;;5036669;28;20480;-68
2023/05/17 08:24:50;;;;;;;18.30;17.00;;;13.90;99.90;;;;;;5033389;28;21161;-68
2023/05/17 08:27:18;;;;;;;17.27;16.07;;;14.40;99.90;;;;;;5044369;28;20460;-68
2023/05/17 08:29:45;;;;;;;18.40;17.20;;;14.20;99.90;;;;;;5034585;28;20460;-68
2023/05/17 08:32:12;;;;;;;16.07;15.37;;;13.90;99.90;;;;;;5044621;28;20494;-69
2023/05/17 08:34:41;;;;;;;16.97;15.90;;;14.30;99.90;;;;;;5041537;28;20491;-68
2023/05/17 08:37:08;;;;;;;17.60;16.00;;;15.20;99.90;;;;;;5035027;28;20464;-68
2023/05/17 08:39:35;;;;;;;16.20;15.50;;;15.40;99.90;;;;;;5042913;28;20475;-68
2023/05/17 08:42:07;;;;;;;16.70;15.90;;;14.50;99.90;;;;;;5033535;28;20841;-68
2023/05/17 08:44:35;;;;;;;15.70;15.00;;;14.10;99.90;;;;;;5042746;28;21048;-68
2023/05/17 08:47:05;;;;;;;15.63;14.93;;;13.90;99.90;;;;;;5037591;28;20554;-68
2023/05/17 08:49:36;;;;;;;15.37;14.77;;;14.20;99.90;;;;;;5044970;28;21025;-70
2023/05/17 08:52:08;;;;;;;17.50;16.33;;;15.00;99.90;;;;;;5045179;28;20978;-68
2023/05/17 08:54:36;;;;;;;16.27;15.20;;;15.90;99.90;;;;;;5047533;28;20479;-68
2023/05/17 08:57:06;;;;;;;15.87;15.17;;;16.20;99.90;;;;;;5036990;28;20462;-69
2023/05/17 08:59:34;;;;;;;17.30;16.50;;;16.00;99.90;;;;;;5035670;28;20457;-68
2023/05/17 09:02:02;;;;;;;16.10;15.40;;;15.50;99.90;;;;;;5043343;28;20843;-68
2023/05/17 09:04:30;;;;;;;16.40;15.70;;;15.10;99.90;;;;;;5038382;28;21001;-68
2023/05/17 09:06:57;;;;;;;16.30;15.60;;;14.80;99.90;;;;;;5041495;28;20558;-68
2023/05/17 09:09:26;;;;;;;16.10;15.37;;;14.50;99.90;;;;;;5040950;28;20953;-68
2023/05/17 09:11:54;;;;;;;16.13;15.40;;;14.70;99.90;;;;;;5038534;28;20517;-69
2023/05/17 09:14:21;;;;;;;17.30;16.40;;;15.50;99.90;;;;;;5037611;28;21062;-68
2023/05/17 09:16:47;;;;;;;16.03;15.33;;;16.40;99.90;;;;;;5040531;28;20466;-68
2023/05/17 09:19:16;;;;;;;15.77;15.07;;;16.80;99.90;;;;;;5043337;28;20537;-68
2023/05/17 09:21:46;;;;;;;15.63;14.93;;;17.20;99.90;;;;;;5042020;28;20542;-69
2023/05/17 09:24:13;;;;;;;15.30;14.70;;;18.10;99.50;;;;;;5044333;28;20464;-69
2023/05/17 09:26:43;;;;;;;15.70;15.00;;;18.50;99.40;;;;;;5044840;28;20456;-68
2023/05/17 09:29:11;;;;;;;15.67;14.97;;;18.90;97.20;;;;;;5042756;28;20526;-68
2023/05/17 09:31:38;;;;;;;15.67;14.80;;;19.00;93.70;;;;;;5047546;28;20472;-67
2023/05/17 09:34:06;;;;;;;15.47;14.77;;;19.20;91.70;;;;;;5038502;28;20897;-68
2023/05/17 09:36:33;;;;;;;15.93;15.00;;;19.10;90.60;;;;;;5043057;28;20462;-67
2023/05/17 09:39:04;;;;;;;18.53;16.70;;;19.50;92.00;;;;;;5038454;28;20467;-67
2023/05/17 09:41:31;;;;;;;15.67;14.97;;;19.20;90.60;;;;;;5039970;28;20513;-67
2023/05/17 09:44:01;;;;;;;15.23;14.53;;;19.60;91.30;;;;;;5044680;28;21019;-67
2023/05/17 09:46:32;;;;;;;15.67;14.87;;;20.10;91.00;;;;;;5045162;28;20531;-67
2023/05/17 09:49:03;;;;;;;16.60;15.60;;;20.30;88.10;;;;;;5039689;28;20456;-67
2023/05/17 09:51:33;;;;;;;14.90;14.30;;;20.30;82.70;;;;;;5042169;28;20456;-67
2023/05/17 09:54:00;;;;;;;15.33;14.63;;;20.80;83.30;;;;;;5045350;28;21036;-67
2023/05/17 09:56:31;;;;;;;17.67;16.00;;;20.60;80.30;;;;;;5040644;28;20463;-67
2023/05/17 09:58:59;;;;;;;14.50;13.90;;;19.90;77.80;;;;;;5044825;28;20872;-67
2023/05/17 10:01:30;;;;;;;17.43;14.97;;;19.20;80.30;;;;;;5038975;28;20476;-66
2023/05/17 10:04:01;;;;;;;15.53;14.83;;;19.20;81.00;;;;;;5034834;28;21216;-68
2023/05/17 10:06:29;;;;;;;15.33;14.47;;;19.00;80.70;;;;;;5031488;28;20572;-68
2023/05/17 10:08:58;;;;;;;15.30;14.50;;;18.50;78.60;;;;;;5040155;28;20824;-68
2023/05/17 10:11:32;;;;;;;15.10;14.40;;;19.60;81.00;;;;;;5040252;28;20462;-67
2023/05/17 10:14:05;;;;;;;16.00;14.93;;;20.70;79.60;;;;;;5033388;28;20478;-67
2023/05/17 10:16:35;;;;;;;14.67;14.07;;;19.40;79.60;;;;;;5045016;28;20581;-67
2023/05/17 10:19:03;;;;;;;15.03;14.33;;;18.40;83.40;;;;;;5037458;28;21083;-67
2023/05/17 10:21:31;;;;;;;14.40;13.80;;;18.40;80.60;;;;;;5041923;28;20562;-68
2023/05/17 10:23:59;;;;;;;14.80;14.20;;;19.70;79.40;;;;;;5035814;28;20462;-67
2023/05/17 10:26:27;;;;;;;16.93;14.60;;;21.40;79.00;;;;;;5040816;28;20512;-68
2023/05/17 10:28:59;;;;;;;14.70;14.10;;;21.80;73.60;;;;;;5032642;28;20967;-68
2023/05/17 10:31:27;;;;;;;14.87;14.27;;;21.30;71.00;;;;;;5038007;28;20465;-68
2023/05/17 10:33:55;;;;;;;14.93;14.33;;;20.80;72.70;;;;;;5043680;28;20495;-68
2023/05/17 10:36:24;;;;;;;15.20;14.60;;;21.00;74.30;;;;;;5040296;28;20469;-68
2023/05/17 10:38:52;;;;;;;15.10;14.40;;;20.20;73.60;;;;;;5040751;28;20494;-68
2023/05/17 10:41:23;;;;;;;14.60;14.00;;;19.50;75.30;;;;;;5044254;28;20851;-68
2023/05/17 10:43:51;;;;;;;16.13;15.13;;;19.90;75.60;;;;;;5039185;28;20546;-68
2023/05/17 10:46:20;;;;;;;15.37;14.63;;;20.20;73.40;;;;;;5038764;28;20460;-68
2023/05/17 10:48:50;;;;;;;16.50;15.30;;;20.20;73.30;;;;;;5035514;28;20543;-68
2023/05/17 10:51:23;;;;;;;15.73;14.97;;;20.30;73.90;;;;;;5041892;28;20470;-68
2023/05/17 10:54:08;;;;;;;15.33;14.30;;;20.50;75.10;;;;;;5041658;28;20516;-68
2023/05/17 10:56:39;;;;;;;15.80;15.00;;;20.60;77.50;;;;;;5046584;28;20475;-68
2023/05/17 10:59:16;;;;;;;17.43;16.20;;;21.80;72.40;;;;;;5026340;28;20467;-68
2023/05/17 11:01:55;;;;;;;14.93;14.33;;;22.10;69.70;;;;;;5038814;28;20547;-69
2023/05/17 11:04:24;;;;;;;15.10;14.50;;;21.50;67.40;;;;;;5033084;28;20459;-69
2023/05/17 11:06:56;;;;;;;15.10;14.50;;;20.00;73.70;;;;;;5033109;28;20465;-68
2023/05/17 11:09:24;;;;;;;14.90;14.30;;;19.20;73.90;;;;;;5038594;28;20838;-68
2023/05/17 11:12:08;;;;;;;15.93;15.10;;;19.10;74.10;;;;;;5042896;28;20603;-68
2023/05/17 11:14:49;;;;;;;14.97;14.30;;;18.90;73.60;;;;;;5036733;28;20491;-68
2023/05/17 11:17:17;;;;;;;15.13;14.53;;;18.80;74.80;;;;;;5034009;28;20827;-69
2023/05/17 11:20:00;;;;;;;16.60;15.90;;;18.30;74.50;;;;;;5037364;28;20641;-69
2023/05/17 11:22:36;;;;;;;15.20;14.50;;;18.30;75.60;;;;;;5041306;28;20467;-68
2023/05/17 11:25:07;;;;;;;14.90;14.27;;;17.90;79.00;;;;;;5039436;28;20491;-68
2023/05/17 11:27:39;;;;;;;14.90;14.30;;;17.70;81.70;;;;;;5039200;28;20460;-69
2023/05/17 11:30:18;;;;;;;20.10;15.20;;;17.00;81.90;;;;;;5039995;28;20547;-69
2023/05/17 11:32:49;;;;;;;14.70;14.00;;;16.90;84.00;;;;;;5034798;28;21063;-68
2023/05/17 11:35:18;;;;;;;18.90;17.63;;;17.10;81.90;;;;;;5037497;28;20491;-68
2023/05/17 11:37:46;;;;;;;14.70;14.10;;;17.20;80.80;;;;;;5036383;28;20460;-67
2023/05/17 11:40:14;;;;;;;15.10;14.50;;;18.10;77.40;;;;;;5041378;28;20460;-68
2023/05/17 11:42:41;;;;;;;14.97;14.27;;;19.40;75.70;;;;;;5043891;28;20506;-67
2023/05/17 11:45:09;;;;;;;16.17;14.87;;;20.20;73.30;;;;;;5035059;28;20517;-67
2023/05/17 11:47:40;;;;;;;14.90;13.97;;;20.30;72.10;;;;;;5041887;28;20459;-68
2023/05/17 11:50:08;;;;;;;15.93;15.23;;;19.90;73.80;;;;;;5031303;28;20456;-67
2023/05/17 11:52:35;;;;;;;15.43;14.50;;;19.80;76.90;;;;;;5039544;28;20937;-68
2023/05/17 11:55:05;;;;;;;15.47;14.70;;;18.90;72.70;;;;;;5042448;28;20491;-68
2023/05/17 11:57:32;;;;;;;15.40;14.57;;;18.60;77.60;;;;;;5041192;28;20463;-69
2023/05/17 12:00:00;;;;;;;13.70;13.20;;;19.90;76.20;;;;;;5032593;28;20464;-68
2023/05/17 12:02:28;;;;;;;14.90;14.10;;;21.30;72.00;;;;;;5041374;28;20570;-67
2023/05/17 12:04:55;;;;;;;15.30;14.27;;;21.30;71.70;;;;;;5034399;28;20453;-69
2023/05/17 12:07:22;;;;;;;14.17;13.57;;;21.50;67.30;;;;;;5039321;28;21033;-68
2023/05/17 12:09:49;;;;;;;15.03;14.20;;;21.30;67.30;;;;;;5031562;28;20471;-67
2023/05/17 12:12:21;;;;;;;14.97;14.30;;;20.20;70.30;;;;;;5042186;28;20514;-67
2023/05/17 12:14:49;;;;;;;15.23;14.53;;;18.20;71.80;;;;;;5039840;28;20566;-69
2023/05/17 12:17:24;;;;;;;16.20;15.20;;;18.90;71.40;;;;;;5043287;28;20470;-69
2023/05/17 12:19:54;;;;;;;15.20;14.60;;;19.80;71.30;;;;;;5038234;28;20484;-67
2023/05/17 12:22:20;;;;;;;15.07;14.27;;;20.00;70.30;;;;;;5035872;28;20831;-67
2023/05/17 12:24:47;;;;;;;15.33;14.60;;;20.00;71.90;;;;;;5043804;28;21051;-67
2023/05/17 12:27:14;;;;;;;14.37;13.77;;;20.40;67.30;;;;;;5037186;28;20456;-68
2023/05/17 12:29:42;;;;;;;14.60;14.00;;;20.30;66.90;;;;;;5039620;28;20460;-68
2023/05/17 12:32:10;;;;;;;14.47;13.87;;;20.90;68.60;;;;;;5038876;28;20465;-68
2023/05/17 12:34:37;;;;;;;15.00;14.30;;;21.90;66.20;;;;;;5037995;28;20561;-68
2023/05/17 12:37:08;;;;;;;15.60;14.90;;;21.30;64.10;;;;;;5038771;28;20468;-67
2023/05/17 12:39:36;;;;;;;14.73;14.07;;;20.10;68.20;;;;;;5042899;28;20468;-67
2023/05/17 12:42:03;;;;;;;14.63;13.90;;;19.60;67.60;;;;;;5043254;28;20456;-68
2023/05/17 12:44:30;;;;;;;14.20;13.60;;;20.00;66.10;;;;;;5042237;28;20457;-67
2023/05/17 12:47:02;;;;;;;14.70;14.00;;;20.70;67.50;;;;;;5042716;28;20463;-67
2023/05/17 12:49:30;;;;;;;15.17;14.43;;;21.60;66.40;;;;;;5039667;28;20457;-67